»·PEaware :: WAT228 KBUR-KSBD

WAT228 :: KBUR-KSBD

FLIGHT INFORMATION

Flight Status: Arrived
Operator: Unknown
More flights by this operator :: More flights under this callsign
Pilot: Dwight D. (26772)
Aircraft: CESSNA 172 SKYHAWK
(C172)
More flights by this aircraft type
Origin: KBUR Bob Hope-Burbank
United States
Destination: KSBD San Bernardino Intl
United States
More flights between these airports :: More routes between these airports
Route: VNY3 PMD ZIGGY7
File this flight plan on PilotEdge
Remarks:
Altitude:
(Current/Filed)
8,500ft
Speed:
(Current/Filed)
110kts
Departed: 16-Jul-20 06:36 AM
Arrived: 16-Jul-20 07:45 AM
Distance/Time
Traveled:
56nm/1:09
Distance/Time
To Go:
Arrived

Flight Plot

Page will automatically refresh every two minutes.


Map Options




Map Legend


Flown Route
Filed Route
Departure Airport
Arrival Airport
Navaid (VOR, NDB)
Fix

Horizontal Profiles

Position Reports

Time Latitude Longitude Heading Altitude Ground
Speed
16-Jul-20 06:33 34.194075 -118.355413 347 781ft 0kts
16-Jul-20 06:34 34.194075 -118.355413 347 781ft 0kts
16-Jul-20 06:35 34.206843 -118.359204 333 1230ft 82kts
16-Jul-20 06:36 34.215593 -118.387801 287 2031ft 98kts
16-Jul-20 06:37 34.223881 -118.419572 273 2741ft 100kts
16-Jul-20 06:38 34.223467 -118.453172 269 3437ft 99kts
16-Jul-20 06:39 34.223461 -118.486206 269 4128ft 97kts
16-Jul-20 06:40 34.223400 -118.518756 269 4817ft 96kts
16-Jul-20 06:41 34.223247 -118.554399 269 5008ft 117kts
16-Jul-20 06:42 34.241325 -118.581282 337 5004ft 119kts
16-Jul-20 06:43 34.271284 -118.598605 333 4999ft 119kts
16-Jul-20 06:44 34.301049 -118.616228 333 4999ft 119kts
16-Jul-20 06:45 34.324511 -118.595077 56 5001ft 119kts
16-Jul-20 06:46 34.340307 -118.563372 61 5437ft 103kts
16-Jul-20 06:47 34.353237 -118.533089 63 5967ft 99kts
16-Jul-20 06:48 34.365283 -118.503213 64 6504ft 97kts
16-Jul-20 06:49 34.377004 -118.473744 64 7004ft 100kts
16-Jul-20 06:50 34.390350 -118.440078 64 7002ft 116kts
16-Jul-20 06:51 34.404353 -118.404738 64 7000ft 116kts
16-Jul-20 06:52 34.418373 -118.369349 64 6999ft 116kts
16-Jul-20 06:53 34.432199 -118.334441 64 7000ft 116kts
16-Jul-20 06:54 34.446439 -118.298485 64 7000ft 116kts
16-Jul-20 06:55 34.460424 -118.263166 64 6999ft 116kts
16-Jul-20 06:56 34.474434 -118.227658 66 6999ft 116kts
16-Jul-20 06:58 34.494842 -118.198708 26 7013ft 115kts
16-Jul-20 06:59 34.522207 -118.177928 40 6999ft 116kts
16-Jul-20 07:00 34.545769 -118.150842 42 6999ft 116kts
16-Jul-20 07:01 34.570518 -118.125626 39 7000ft 116kts
16-Jul-20 07:02 34.595413 -118.100453 40 6999ft 116kts
16-Jul-20 07:03 34.620287 -118.075137 40 6999ft 116kts
16-Jul-20 07:04 34.645198 -118.049780 40 6999ft 116kts
16-Jul-20 07:05 34.669606 -118.058661 306 7004ft 116kts
16-Jul-20 07:06 34.689169 -118.090256 307 6999ft 116kts
16-Jul-20 07:07 34.683599 -118.113203 169 7019ft 114kts
16-Jul-20 07:08 34.683848 -118.140694 307 7005ft 116kts
16-Jul-20 07:09 34.669251 -118.144997 115 7017ft 114kts
16-Jul-20 07:10 34.655587 -118.109316 114 6999ft 116kts
16-Jul-20 07:11 34.640301 -118.074693 126 6999ft 116kts
16-Jul-20 07:12 34.619753 -118.044203 128 7000ft 116kts
16-Jul-20 07:12 34.602669 -118.018515 128 6901ft 123kts
16-Jul-20 07:14 34.576120 -117.977971 127 6119ft 134kts
16-Jul-20 07:15 34.553162 -117.942209 127 5519ft 130kts
16-Jul-20 07:15 34.535580 -117.914828 127 5497ft 119kts
16-Jul-20 07:17 34.511905 -117.877966 127 5499ft 118kts
16-Jul-20 07:17 34.495005 -117.851659 127 5500ft 118kts
16-Jul-20 07:19 34.473921 -117.814402 120 5758ft 104kts
16-Jul-20 07:19 34.454365 -117.801232 153 6290ft 94kts
16-Jul-20 07:20 34.431410 -117.787041 152 6938ft 90kts
16-Jul-20 07:21 34.408994 -117.773153 152 7514ft 95kts
16-Jul-20 07:22 34.385990 -117.758906 152 8090ft 90kts
16-Jul-20 07:23 34.363941 -117.745256 152 8679ft 87kts
16-Jul-20 07:24 34.342591 -117.732039 152 9270ft 84kts
16-Jul-20 07:25 34.319951 -117.718057 153 9523ft 106kts
16-Jul-20 07:26 34.291506 -117.703374 157 9500ft 112kts
16-Jul-20 07:27 34.262467 -117.689122 157 9499ft 112kts
16-Jul-20 07:28 34.233348 -117.674836 157 9499ft 112kts
16-Jul-20 07:29 34.203555 -117.660224 157 9288ft 124kts
16-Jul-20 07:30 34.170483 -117.644010 157 8734ft 130kts
16-Jul-20 07:31 34.136666 -117.627437 157 8069ft 136kts
16-Jul-20 07:32 34.100849 -117.609891 157 7081ft 140kts
16-Jul-20 07:33 34.064273 -117.591981 157 6077ft 141kts
16-Jul-20 07:34 34.029010 -117.574722 157 5494ft 126kts
16-Jul-20 07:35 33.999258 -117.557294 115 5489ft 118kts
16-Jul-20 07:36 34.014457 -117.524014 55 5500ft 118kts
16-Jul-20 07:37 34.025830 -117.487324 79 5462ft 123kts
16-Jul-20 07:38 34.032527 -117.443120 75 4604ft 141kts
16-Jul-20 07:39 34.046006 -117.398709 66 3670ft 139kts
16-Jul-20 07:40 34.061570 -117.356481 65 2905ft 138kts
16-Jul-20 07:41 34.073420 -117.313972 77 2349ft 137kts
16-Jul-20 07:42 34.085444 -117.270791 78 1704ft 136kts
16-Jul-20 07:43 34.094642 -117.237323 69 1168ft 62kts
16-Jul-20 07:44 34.097681 -117.227484 53 1160ft 23kts
16-Jul-20 07:45 34.100919 -117.227896 306 1160ft 31kts
16-Jul-20 07:46 34.101340 -117.230249 330 1160ft 0kts
16-Jul-20 07:47 34.101340 -117.230249 330 1160ft 0kts
16-Jul-20 07:48 34.101340 -117.230249 330 1160ft 0kts

Navigation Log

Ident Type
Flight plan parsing failed, navigation log unavailable